Time;durP1;ratioP1;P1;durP2;ratioP2;P2;SDS_P1;SDS_P2;PMS_P1;PMS_P2;Temp;Humidity;BMP_temperature;BMP_pressure;BME280_temperature;BME280_humidity;BME280_pressure;Samples;Min_cycle;Max_cycle;Signal;HPM_P1;HPM_P2
2022/08/29 00:02:29;;;;;;;17.67;6.30;;;;;;;21.39;54.85;100235.23;124796;1099;104261;-77
2022/08/29 00:05:00;;;;;;;16.60;7.07;;;;;;;21.37;56.35;100240.59;124708;1099;104265;-76
2022/08/29 00:07:31;;;;;;;15.63;6.97;;;;;;;21.36;55.64;100229.05;124755;1099;104241;-76
2022/08/29 00:10:03;;;;;;;15.93;6.40;;;;;;;21.40;55.31;100229.88;124791;1099;104159;-76
2022/08/29 00:12:34;;;;;;;16.43;6.80;;;;;;;21.44;55.37;100230.71;124716;1099;104203;-77
2022/08/29 00:15:08;;;;;;;16.67;6.30;;;;;;;21.51;55.49;100229.77;124762;1099;104229;-76
2022/08/29 00:17:39;;;;;;;18.53;6.87;;;;;;;21.60;54.87;100234.08;124707;1099;104278;-77
2022/08/29 00:20:15;;;;;;;17.80;6.80;;;;;;;21.64;55.32;100243.83;124821;1098;104297;-77
2022/08/29 00:22:47;;;;;;;15.83;6.13;;;;;;;21.63;55.26;100239.38;124806;1099;102744;-77
2022/08/29 00:25:18;;;;;;;15.57;6.37;;;;;;;21.66;55.79;100239.34;124741;1099;104069;-77
2022/08/29 00:27:49;;;;;;;16.70;6.77;;;;;;;21.69;55.23;100241.96;124733;1099;104258;-76
2022/08/29 00:30:22;;;;;;;18.07;7.00;;;;;;;21.69;55.68;100237.53;124825;1099;104273;-76
2022/08/29 00:32:54;;;;;;;16.63;6.90;;;;;;;21.70;55.16;100235.73;124795;1099;104185;-76
2022/08/29 00:35:28;;;;;;;19.30;6.83;;;;;;;21.68;56.29;100235.75;124777;1099;103050;-76
2022/08/29 00:37:59;;;;;;;22.73;6.80;;;;;;;21.67;55.88;100238.44;124711;1099;104280;-76
2022/08/29 00:40:33;;;;;;;16.40;6.97;;;;;;;21.69;55.44;100242.87;124743;1099;102204;-77
2022/08/29 00:43:06;;;;;;;19.43;7.20;;;;;;;21.68;55.35;100241.09;124794;1098;104247;-76
2022/08/29 00:45:39;;;;;;;19.00;7.10;;;;;;;21.66;55.97;100242.00;124809;1099;104287;-76
2022/08/29 00:48:15;;;;;;;19.90;7.20;;;;;;;21.61;55.46;100251.88;124760;1099;104197;-77
2022/08/29 00:50:52;;;;;;;16.07;6.90;;;;;;;21.52;55.75;100245.77;124770;1099;104283;-77
2022/08/29 00:53:29;;;;;;;16.97;7.13;;;;;;;21.45;55.74;100249.38;124801;1099;102887;-76
2022/08/29 00:56:01;;;;;;;17.87;6.80;;;;;;;21.39;56.42;100252.12;124732;1099;104258;-77
2022/08/29 00:58:40;;;;;;;19.63;6.90;;;;;;;21.35;56.08;100259.30;124769;1099;103299;-77
2022/08/29 01:01:13;;;;;;;21.00;7.50;;;;;;;21.31;56.64;100252.22;124724;1099;102041;-76
2022/08/29 01:03:44;;;;;;;19.73;7.17;;;;;;;21.27;56.19;100250.51;124738;1099;105841;-76
2022/08/29 01:06:16;;;;;;;20.13;7.40;;;;;;;21.29;55.85;100246.02;124826;1099;101966;-76
2022/08/29 01:08:47;;;;;;;16.27;6.57;;;;;;;21.30;56.55;100250.47;124735;1099;111779;-76
2022/08/29 01:14:09;;;;;;;19.57;6.70;;;;;;;21.22;56.75;100246.12;124794;1099;104191;-77
2022/08/29 01:16:42;;;;;;;16.67;7.40;;;;;;;21.16;56.82;100236.39;125534;1099;101863;-77
2022/08/29 01:19:36;;;;;;;19.40;6.80;;;;;;;21.12;57.37;100246.23;124778;1099;104182;-76
2022/08/29 01:22:10;;;;;;;;;;;;;;;21.06;56.16;100248.97;124725;1099;102784;-75
2022/08/29 01:24:49;;;;;;;16.03;6.87;;;;;;;20.99;57.19;100248.16;124754;1099;104166;-75
2022/08/29 01:27:23;;;;;;;15.03;7.13;;;;;;;20.92;56.96;100245.58;124751;1098;104235;-75
2022/08/29 01:29:54;;;;;;;17.07;6.67;;;;;;;20.86;57.46;100253.64;124688;1099;102134;-75
2022/08/29 01:32:26;;;;;;;19.83;7.03;;;;;;;20.83;57.65;100243.87;124741;1098;104308;-75
2022/08/29 01:34:57;;;;;;;18.97;7.70;;;;;;;20.79;57.41;100244.83;124788;1099;104318;-76
2022/08/29 01:37:33;;;;;;;19.65;7.70;;;;;;;20.78;57.62;100249.26;124772;1098;104342;-75
2022/08/29 01:40:05;;;;;;;16.40;6.97;;;;;;;20.76;57.69;100248.41;124758;1099;102464;-75
2022/08/29 01:42:36;;;;;;;21.30;7.63;;;;;;;20.74;58.08;100252.88;124756;1099;104166;-75
2022/08/29 01:45:09;;;;;;;17.33;7.50;;;;;;;20.71;57.55;100244.91;124776;1099;104159;-75
2022/08/29 01:47:41;;;;;;;18.05;7.33;;;;;;;20.68;58.61;100250.27;124756;1099;104160;-75
2022/08/29 01:50:15;;;;;;;18.37;7.37;;;;;;;20.64;58.89;100244.06;124799;1099;104322;-76
2022/08/29 01:52:46;;;;;;;19.93;7.73;;;;;;;20.68;57.77;100244.94;124753;1099;104182;-76
2022/08/29 01:55:17;;;;;;;19.20;8.13;;;;;;;20.70;57.90;100245.80;124786;1099;104226;-75
2022/08/29 01:57:48;;;;;;;21.93;7.40;;;;;;;20.74;58.86;100247.55;124766;1098;104224;-76
2022/08/29 02:00:19;;;;;;;18.60;7.60;;;;;;;20.74;58.17;100249.30;124710;1098;104201;-76
2022/08/29 02:02:51;;;;;;;16.35;8.00;;;;;;;20.75;58.46;100251.08;124759;1099;104245;-76
2022/08/29 02:05:22;;;;;;;16.40;6.60;;;;;;;20.73;58.86;100242.23;124756;1099;102836;-75
2022/08/29 02:07:54;;;;;;;18.37;7.67;;;;;;;20.71;59.03;100246.67;124728;1099;104083;-75
2022/08/29 02:10:25;;;;;;;20.67;7.27;;;;;;;20.65;58.30;100247.63;124815;1098;104163;-75
2022/08/29 02:12:57;;;;;;;17.10;7.50;;;;;;;20.58;59.29;100249.42;124712;1099;104258;-75
2022/08/29 02:15:28;;;;;;;15.60;7.23;;;;;;;20.51;59.37;100246.86;124732;1099;104172;-75
2022/08/29 02:17:59;;;;;;;20.93;7.90;;;;;;;20.46;59.18;100241.56;124768;1099;103030;-76
2022/08/29 02:20:31;;;;;;;18.53;7.53;;;;;;;20.39;59.11;100245.17;124633;1099;106985;-75
2022/08/29 02:23:02;;;;;;;20.17;7.40;;;;;;;20.33;59.54;100248.76;124774;1099;102782;-78
2022/08/29 02:25:42;;;;;;;17.13;7.57;;;;;;;20.30;59.92;100251.45;124753;1099;103348;-76
2022/08/29 02:28:18;;;;;;;17.73;7.50;;;;;;;20.32;59.86;100252.34;124763;1099;104241;-76
2022/08/29 02:30:51;;;;;;;22.50;8.23;;;;;;;20.30;59.83;100248.78;124735;1099;117724;-75
2022/08/29 02:33:23;;;;;;;16.73;7.60;;;;;;;20.25;59.77;100248.82;124714;1099;104165;-75
2022/08/29 02:35:55;;;;;;;20.87;7.87;;;;;;;20.21;59.66;100252.42;124788;1099;101902;-75
2022/08/29 02:38:26;;;;;;;16.50;7.73;;;;;;;20.21;60.41;100252.42;124758;1099;103249;-76
2022/08/29 02:40:58;;;;;;;20.83;8.10;;;;;;;20.21;60.04;100256.84;124781;1098;104740;-75
2022/08/29 02:43:29;;;;;;;22.40;8.00;;;;;;;20.19;60.57;100258.66;124775;1099;104249;-75
2022/08/29 02:46:00;;;;;;;19.30;7.40;;;;;;;20.21;60.54;100257.75;124726;1099;104159;-75
2022/08/29 02:48:32;;;;;;;21.17;7.27;;;;;;;20.22;60.25;100258.63;124731;1099;104188;-75
2022/08/29 02:51:03;;;;;;;19.93;8.00;;;;;;;20.17;60.33;100258.66;124736;1099;112508;-75
2022/08/29 02:53:35;;;;;;;18.13;8.37;;;;;;;20.09;60.67;100264.05;124749;1099;104191;-75
2022/08/29 02:56:07;;;;;;;21.10;8.10;;;;;;;20.05;60.84;100264.95;124808;1099;103474;-75
2022/08/29 02:58:38;;;;;;;22.47;7.60;;;;;;;20.03;60.80;100263.21;124725;1099;102803;-75
2022/08/29 03:01:09;;;;;;;18.03;7.97;;;;;;;19.99;61.12;100266.78;124710;1098;104204;-76
2022/08/29 03:03:43;;;;;;;21.60;8.63;;;;;;;19.92;60.75;100279.26;124641;1099;104280;-76
2022/08/29 03:06:15;;;;;;;19.63;7.83;;;;;;;19.89;60.95;100277.48;124693;1099;104224;-77
2022/08/29 03:08:47;;;;;;;17.50;7.87;;;;;;;19.88;61.07;100280.16;124719;1099;104628;-76
2022/08/29 03:11:19;;;;;;;20.83;8.53;;;;;;;19.86;60.94;100285.49;124698;1099;102808;-77
2022/08/29 03:13:50;;;;;;;21.13;8.77;;;;;;;19.86;61.72;100273.97;124745;1099;104239;-76
2022/08/29 03:16:21;;;;;;;19.80;8.83;;;;;;;19.87;61.31;100281.95;124734;1099;104234;-76
2022/08/29 03:18:52;;;;;;;26.57;8.30;;;;;;;19.86;61.28;100284.62;124760;1099;104235;-76
2022/08/29 03:21:25;;;;;;;19.70;8.67;;;;;;;19.83;61.61;100282.84;124774;1099;104178;-76
2022/08/29 03:23:58;;;;;;;24.30;9.10;;;;;;;19.80;61.52;100280.20;124693;1099;104615;-76
2022/08/29 03:26:29;;;;;;;25.77;9.30;;;;;;;19.81;61.68;100292.63;124753;1099;102864;-77
2022/08/29 03:29:02;;;;;;;20.63;8.43;;;;;;;19.81;62.10;100289.09;124726;1099;104239;-76
2022/08/29 03:31:39;;;;;;;23.00;8.68;;;;;;;19.80;62.01;100295.30;124825;1099;102789;-76
2022/08/29 03:34:13;;;;;;;18.27;8.47;;;;;;;19.79;61.68;100297.09;125592;1099;104227;-77
2022/08/29 03:36:45;;;;;;;23.53;8.30;;;;;;;19.77;61.87;100297.98;125560;1099;102749;-76
2022/08/29 03:39:16;;;;;;;22.83;8.67;;;;;;;19.72;62.33;100301.51;124734;1099;104642;-76
2022/08/29 03:41:48;;;;;;;20.83;9.00;;;;;;;19.71;62.74;100305.08;124764;1099;101914;-76
2022/08/29 03:44:19;;;;;;;22.43;9.27;;;;;;;19.70;62.48;100310.41;124749;1099;104252;-76
2022/08/29 03:46:50;;;;;;;21.70;8.47;;;;;;;19.71;62.80;100315.73;124815;1099;104259;-76
2022/08/29 03:49:21;;;;;;;22.03;8.80;;;;;;;19.71;62.73;100323.72;124764;1099;104162;-76
2022/08/29 03:51:52;;;;;;;22.07;9.37;;;;;;;19.72;62.51;100319.27;124762;1099;104156;-77
2022/08/29 03:54:24;;;;;;;22.33;9.47;;;;;;;19.70;62.24;100321.06;124782;1099;104696;-77
2022/08/29 03:56:55;;;;;;;26.17;9.13;;;;;;;19.69;62.49;100322.81;124732;1099;104274;-76
2022/08/29 03:59:27;;;;;;;24.43;9.20;;;;;;;19.72;62.73;100329.91;124766;1099;104232;-76
2022/08/29 04:01:58;;;;;;;20.53;9.17;;;;;;;19.73;62.17;100324.58;124818;1099;104358;-76
2022/08/29 04:07:18;;;;;;;22.87;9.10;;;;;;;19.77;62.82;100321.94;124619;1099;104417;-76
2022/08/29 04:09:49;;;;;;;20.20;9.43;;;;;;;19.77;63.36;100327.27;125380;1099;104159;-76
2022/08/29 04:12:21;;;;;;;22.77;8.73;;;;;;;19.75;63.06;100325.45;124822;1099;102375;-79
2022/08/29 04:14:52;;;;;;;20.67;8.97;;;;;;;19.77;63.08;100322.81;124817;1099;104512;-76
2022/08/29 04:17:23;;;;;;;25.37;8.87;;;;;;;19.79;62.89;100322.80;124794;1097;104188;-76
2022/08/29 04:19:55;;;;;;;20.23;8.90;;;;;;;19.81;62.60;100326.37;124782;1099;104181;-76
2022/08/29 04:22:26;;;;;;;21.07;8.70;;;;;;;19.83;63.29;100324.57;124812;1099;104271;-78
2022/08/29 04:24:58;;;;;;;23.43;9.20;;;;;;;19.83;62.66;100322.78;124773;1099;104503;-77
2022/08/29 04:27:30;;;;;;;23.17;8.27;;;;;;;19.83;63.07;100321.91;124764;1099;104159;-77
2022/08/29 04:30:01;;;;;;;28.10;8.63;;;;;;;19.84;62.93;100323.69;124778;1099;104393;-76
2022/08/29 04:32:32;;;;;;;22.57;8.43;;;;;;;19.88;63.64;100320.09;124766;1098;104229;-77
2022/08/29 04:35:04;;;;;;;22.47;8.90;;;;;;;19.92;62.71;100316.53;124791;1098;104259;-76
2022/08/29 04:37:35;;;;;;;25.70;9.30;;;;;;;19.97;63.17;100319.17;124767;1099;104236;-77
2022/08/29 04:40:09;;;;;;;21.20;9.07;;;;;;;19.99;63.73;100323.61;124705;1099;104354;-76
2022/08/29 04:42:41;;;;;;;20.00;8.27;;;;;;;20.01;63.22;100323.60;124807;1099;104220;-76
2022/08/29 04:45:16;;;;;;;24.07;8.90;;;;;;;20.03;63.46;100324.47;124775;1099;104182;-77
2022/08/29 04:47:48;;;;;;;18.90;8.10;;;;;;;20.04;62.54;100323.55;124838;1099;101816;-76
2022/08/29 04:50:26;;;;;;;23.03;8.40;;;;;;;20.07;62.48;100326.20;124808;1099;104312;-76
2022/08/29 04:52:59;;;;;;;22.13;7.57;;;;;;;20.11;63.01;100325.30;124704;1099;104208;-76
2022/08/29 04:55:30;;;;;;;19.40;7.90;;;;;;;20.15;63.10;100323.48;124790;1099;102082;-76
2022/08/29 04:58:01;;;;;;;21.37;8.27;;;;;;;20.18;62.39;100329.70;124774;1099;102778;-76
2022/08/29 05:00:32;;;;;;;19.23;7.90;;;;;;;20.27;63.19;100328.73;124829;1099;104261;-77
2022/08/29 05:03:06;;;;;;;21.97;8.60;;;;;;;20.37;62.30;100334.91;124760;1098;104261;-77
2022/08/29 05:05:36;;;;;;;;;;;;;;;20.44;62.97;100333.95;124733;1099;104236;-77
2022/08/29 05:08:07;;;;;;;22.17;7.93;;;;;;;20.51;62.78;100340.14;124809;1099;102752;-77
2022/08/29 05:10:38;;;;;;;22.30;7.87;;;;;;;20.59;61.99;100340.95;124733;1099;104178;-77
2022/08/29 05:13:10;;;;;;;21.20;7.83;;;;;;;20.68;62.40;100334.67;124756;1099;104322;-76
2022/08/29 05:15:42;;;;;;;25.73;7.63;;;;;;;20.77;62.25;100338.17;124731;1099;104156;-77
2022/08/29 05:18:15;;;;;;;23.52;7.83;;;;;;;20.87;62.76;100346.09;124734;1098;104229;-77
2022/08/29 05:20:48;;;;;;;25.67;8.30;;;;;;;20.95;61.93;100353.09;124822;1099;104309;-77
2022/08/29 05:23:20;;;;;;;24.07;7.73;;;;;;;21.01;62.41;100344.17;124772;1099;104194;-77
2022/08/29 05:25:57;;;;;;;16.47;7.83;;;;;;;21.07;61.94;100341.44;124785;1099;104217;-77
2022/08/29 05:28:31;;;;;;;20.50;7.13;;;;;;;21.15;61.00;100336.03;124711;1099;102890;-78
2022/08/29 05:31:03;;;;;;;23.03;8.10;;;;;;;21.24;61.69;100337.70;124766;1099;104180;-77
2022/08/29 05:33:34;;;;;;;25.17;8.30;;;;;;;21.30;61.31;100337.62;124787;1099;103633;-77
2022/08/29 05:36:08;;;;;;;21.77;7.57;;;;;;;21.38;61.12;100349.13;124682;1098;104309;-77
2022/08/29 05:38:40;;;;;;;22.03;8.77;;;;;;;21.46;61.81;100346.38;124871;1099;104232;-77
2022/08/29 05:41:11;;;;;;;23.80;7.87;;;;;;;21.54;61.36;100350.73;124745;1099;104971;-76
2022/08/29 05:43:42;;;;;;;18.60;8.30;;;;;;;21.64;61.46;100355.96;124727;1099;104187;-77
2022/08/29 05:46:15;;;;;;;20.83;8.10;;;;;;;21.70;61.16;100353.22;124709;1099;102292;-76
2022/08/29 05:48:47;;;;;;;20.47;8.20;;;;;;;21.77;60.78;100357.59;124709;1099;102870;-77
2022/08/29 05:51:23;;;;;;;23.15;7.83;;;;;;;21.85;60.68;100353.03;125600;1099;104264;-77
2022/08/29 05:53:54;;;;;;;21.43;6.97;;;;;;;21.95;60.83;100358.25;125023;1099;102791;-77
2022/08/29 05:56:29;;;;;;;23.70;7.00;;;;;;;22.03;60.53;100353.67;124693;1099;104156;-77
2022/08/29 05:59:00;;;;;;;23.33;7.20;;;;;;;22.12;59.47;100355.34;124822;1099;104159;-77
2022/08/29 06:01:33;;;;;;;19.80;6.93;;;;;;;22.20;59.79;100361.45;124702;1098;104258;-76
2022/08/29 06:04:09;;;;;;;20.60;7.20;;;;;;;22.25;59.27;100360.50;124782;1099;102769;-77
2022/08/29 06:06:42;;;;;;;24.93;7.60;;;;;;;22.33;59.08;100364.86;124810;1099;104265;-76
2022/08/29 06:09:19;;;;;;;25.55;7.72;;;;;;;22.40;59.16;100367.41;124745;1099;102759;-77
2022/08/29 06:11:53;;;;;;;24.97;7.20;;;;;;;22.50;58.76;100365.51;124869;1098;104232;-76
2022/08/29 06:14:30;;;;;;;29.27;7.05;;;;;;;22.59;58.09;100365.37;125338;1099;104209;-77
2022/08/29 06:17:11;;;;;;;21.33;7.03;;;;;;;22.69;58.13;100366.09;125635;1099;102404;-77
2022/08/29 06:19:43;;;;;;;22.07;6.90;;;;;;;22.78;58.29;100367.70;125592;1099;104265;-77
2022/08/29 06:22:15;;;;;;;19.63;6.73;;;;;;;22.86;58.24;100365.81;125573;1099;104701;-76
2022/08/29 06:24:47;;;;;;;20.40;6.90;;;;;;;22.97;58.19;100362.95;125606;1099;102760;-77
2022/08/29 06:27:20;;;;;;;22.77;7.03;;;;;;;23.07;57.72;100366.34;125577;1099;104197;-78
2022/08/29 06:29:50;;;;;;;;;;;;;;;23.16;57.63;100366.20;125921;1098;101787;-77
2022/08/29 06:32:22;;;;;;;20.60;6.93;;;;;;;23.25;57.33;100368.71;125736;1097;104157;-77
2022/08/29 06:34:56;;;;;;;19.37;7.00;;;;;;;23.37;57.61;100372.06;124864;1099;104207;-76
2022/08/29 06:37:31;;;;;;;18.67;7.23;;;;;;;23.47;57.11;100365.63;125715;1099;104156;-77
2022/08/29 06:40:11;;;;;;;21.10;7.87;;;;;;;23.59;56.99;100362.70;124942;1099;102960;-76
2022/08/29 06:42:46;;;;;;;22.27;6.50;;;;;;;23.73;56.36;100362.39;124896;1099;102788;-77
2022/08/29 06:45:22;;;;;;;17.73;6.70;;;;;;;23.86;55.71;100368.44;125525;1099;101977;-77
2022/08/29 06:47:55;;;;;;;22.40;7.22;;;;;;;24.00;55.93;100366.33;124926;1099;104198;-76
2022/08/29 06:50:32;;;;;;;18.00;5.70;;;;;;;24.17;55.43;100365.08;124850;1099;103264;-77
2022/08/29 06:53:06;;;;;;;20.53;7.23;;;;;;;24.35;54.58;100371.80;125639;1099;104178;-77
2022/08/29 06:55:39;;;;;;;26.10;5.73;;;;;;;24.50;54.83;100363.40;124955;1097;104159;-77
2022/08/29 06:58:11;;;;;;;16.20;6.00;;;;;;;24.67;53.55;100364.84;125900;1098;103095;-77
2022/08/29 07:00:44;;;;;;;16.05;6.03;;;;;;;24.82;53.95;100360.87;125813;1099;103250;-79
2022/08/29 07:03:18;;;;;;;14.33;5.60;;;;;;;24.99;53.62;100363.99;125839;1099;104187;-78
2022/08/29 07:05:58;;;;;;;19.60;6.17;;;;;;;25.18;52.78;100368.87;125735;1099;103263;-78
2022/08/29 07:08:29;;;;;;;14.50;5.67;;;;;;;25.41;52.32;100368.28;126172;1099;102318;-79
2022/08/29 07:11:02;;;;;;;17.87;5.67;;;;;;;25.58;52.28;100373.19;125812;1099;104191;-79
2022/08/29 07:13:36;;;;;;;27.70;6.90;;;;;;;25.76;51.22;100367.28;126605;1097;102116;-78
2022/08/29 07:16:11;;;;;;;20.17;6.47;;;;;;;25.96;51.41;100372.07;125811;1099;104193;-78
2022/08/29 07:22:40;;;;;;;21.07;5.90;;;;;;;26.51;50.65;100372.17;125827;1099;104150;-78
2022/08/29 07:25:16;;;;;;;18.17;6.05;;;;;;;26.73;49.97;100371.51;126047;1099;104156;-78
2022/08/29 07:27:55;;;;;;;18.03;6.00;;;;;;;26.93;49.31;100367.25;126498;1099;102489;-78
2022/08/29 07:30:32;;;;;;;21.17;6.00;;;;;;;27.21;49.01;100369.88;125935;1099;104493;-78
2022/08/29 07:33:11;;;;;;;18.47;6.00;;;;;;;27.44;47.78;100374.45;125739;1098;104224;-78
2022/08/29 07:36:02;;;;;;;16.83;6.33;;;;;;;27.64;47.72;100375.55;125781;1099;102139;-78
2022/08/29 07:38:35;;;;;;;18.47;5.97;;;;;;;27.75;48.48;100374.22;126648;1098;103095;-79
2022/08/29 07:41:22;;;;;;;18.60;6.03;;;;;;;27.94;47.93;100376.19;125882;1099;102320;-78
2022/08/29 07:43:57;;;;;;;19.60;5.70;;;;;;;28.07;47.46;100377.52;126182;1099;101773;-78
2022/08/29 07:46:30;;;;;;;19.80;6.53;;;;;;;28.23;46.81;100377.79;125773;1099;104198;-76
2022/08/29 07:49:02;;;;;;;15.23;6.20;;;;;;;28.43;46.25;100386.92;124900;1099;104197;-76
2022/08/29 07:51:33;;;;;;;;;;;;;;;28.48;45.74;100380.38;124903;1098;104284;-75
2022/08/29 07:54:07;;;;;;;20.33;5.93;;;;;;;28.61;45.52;100378.11;124915;1099;104232;-78
2022/08/29 07:56:46;;;;;;;19.17;6.40;;;;;;;28.75;45.37;100379.34;124820;1099;104287;-77
2022/08/29 07:59:18;;;;;;;21.40;6.17;;;;;;;28.82;45.32;100373.61;124849;1099;104259;-77
2022/08/29 08:01:52;;;;;;;27.03;6.83;;;;;;;28.91;45.01;100377.76;124936;1099;102755;-77
2022/08/29 08:04:26;;;;;;;21.82;6.37;;;;;;;29.00;44.87;100369.27;124864;1099;103709;-77
2022/08/29 08:06:59;;;;;;;23.30;6.23;;;;;;;29.09;45.01;100380.61;124849;1099;104322;-77
2022/08/29 08:09:31;;;;;;;18.30;6.28;;;;;;;29.21;44.80;100380.11;124915;1099;104169;-77
2022/08/29 08:12:04;;;;;;;20.20;5.90;;;;;;;29.33;44.05;100379.57;124858;1099;104229;-77
2022/08/29 08:14:37;;;;;;;20.30;5.17;;;;;;;29.55;43.31;100381.31;124958;1099;104242;-77
2022/08/29 08:17:11;;;;;;;20.05;5.80;;;;;;;29.70;42.80;100383.33;124887;1099;104201;-76
2022/08/29 08:19:44;;;;;;;15.67;5.80;;;;;;;29.84;42.56;100389.94;124934;1099;102151;-78
2022/08/29 08:22:14;;;;;;;;;;;;;;;30.03;42.09;100376.42;125801;1099;104188;-77
2022/08/29 08:24:52;;;;;;;18.63;5.50;;;;;;;30.14;41.73;100375.91;125740;1098;102740;-78
2022/08/29 08:27:27;;;;;;;16.97;5.37;;;;;;;30.26;41.48;100383.44;125127;1099;101770;-77
2022/08/29 08:30:04;;;;;;;18.73;4.90;;;;;;;30.26;40.64;100376.22;124892;1099;103006;-78
2022/08/29 08:32:37;;;;;;;17.87;5.60;;;;;;;30.37;40.80;100377.51;124810;1099;104159;-78
2022/08/29 08:35:11;;;;;;;20.83;5.93;;;;;;;30.52;39.87;100381.34;125640;1099;104229;-77
2022/08/29 08:37:46;;;;;;;17.07;5.80;;;;;;;30.73;39.69;100374.86;124931;1099;103554;-77
2022/08/29 08:40:26;;;;;;;18.10;5.13;;;;;;;30.86;37.99;100376.95;125688;1099;102312;-77
2022/08/29 08:43:01;;;;;;;21.97;5.93;;;;;;;30.96;38.06;100375.50;125696;1099;102782;-78
2022/08/29 08:45:40;;;;;;;19.30;5.80;;;;;;;31.04;37.93;100375.14;124980;1098;104192;-78
2022/08/29 08:48:23;;;;;;;15.07;5.07;;;;;;;31.14;37.02;100363.75;125587;1099;104165;-77
2022/08/29 08:51:01;;;;;;;21.97;5.10;;;;;;;31.23;36.67;100372.34;125599;1099;104193;-77
2022/08/29 08:53:39;;;;;;;20.40;5.37;;;;;;;31.31;36.41;100370.13;125657;1098;104210;-77
2022/08/29 08:56:17;;;;;;;16.70;5.20;;;;;;;31.40;35.51;100369.64;124949;1098;104153;-78
2022/08/29 08:58:55;;;;;;;15.23;5.07;;;;;;;31.53;34.50;100370.75;124833;1098;107796;-78
2022/08/29 09:01:33;;;;;;;19.27;5.10;;;;;;;31.62;34.47;100368.48;124845;1099;104163;-77
2022/08/29 09:04:32;;;;;;;19.27;4.90;;;;;;;31.74;34.31;100362.39;126331;1099;104188;-78
2022/08/29 09:07:18;;;;;;;15.17;5.00;;;;;;;31.77;34.06;100345.95;124805;1097;105046;-77
2022/08/29 09:10:04;;;;;;;20.03;5.40;;;;;;;31.88;33.82;100362.53;124785;1099;104200;-78
2022/08/29 09:12:46;;;;;;;14.13;5.10;;;;;;;31.94;33.72;100363.14;125570;1098;104465;-77
2022/08/29 09:15:24;;;;;;;16.63;4.73;;;;;;;31.96;33.89;100358.50;125606;1099;102397;-77
2022/08/29 09:18:02;;;;;;;11.67;4.77;;;;;;;32.01;33.55;100353.71;125536;1099;104223;-77
2022/08/29 09:20:36;;;;;;;20.50;5.30;;;;;;;32.03;32.98;100351.78;124855;1099;104160;-76
2022/08/29 09:23:18;;;;;;;18.25;5.10;;;;;;;32.11;32.71;100351.38;124859;1099;104229;-77
2022/08/29 09:25:50;;;;;;;20.73;4.97;;;;;;;32.19;32.84;100354.52;124871;1099;104256;-77
2022/08/29 09:28:23;;;;;;;12.10;4.90;;;;;;;32.24;32.71;100353.31;124881;1099;104162;-77
2022/08/29 09:31:16;;;;;;;14.63;4.80;;;;;;;32.33;32.07;100351.88;124802;1099;104225;-77
2022/08/29 09:33:51;;;;;;;12.53;4.53;;;;;;;32.41;32.00;100348.73;124795;1098;102371;-77
2022/08/29 09:36:43;;;;;;;11.20;4.73;;;;;;;32.49;31.66;100354.61;124856;1099;104160;-76
2022/08/29 09:39:21;;;;;;;15.27;4.40;;;;;;;32.49;30.89;100346.46;124795;1099;104214;-77
2022/08/29 09:41:56;;;;;;;13.27;4.60;;;;;;;32.53;31.20;100347.15;124811;1099;104181;-78
2022/08/29 09:44:31;;;;;;;10.87;4.57;;;;;;;32.59;31.36;100344.08;124871;1099;104181;-77
2022/08/29 09:47:13;;;;;;;14.00;4.70;;;;;;;32.64;30.90;100347.42;124870;1099;104265;-78
2022/08/29 09:50:07;;;;;;;16.20;5.30;;;;;;;32.67;30.25;100341.80;124807;1099;118197;-76
2022/08/29 09:52:51;;;;;;;19.30;5.30;;;;;;;32.77;30.63;100337.59;126061;1098;101823;-77
2022/08/29 09:55:31;;;;;;;15.30;4.70;;;;;;;32.90;30.86;100342.28;125620;1099;102590;-77
2022/08/29 09:58:19;;;;;;;16.33;4.50;;;;;;;32.95;30.80;100341.02;125801;1099;104184;-77
2022/08/29 10:01:13;;;;;;;17.20;5.40;;;;;;;32.95;30.83;100330.16;125585;1099;104163;-77
2022/08/29 10:04:05;;;;;;;13.57;5.43;;;;;;;32.99;30.92;100338.12;125610;1099;104162;-77
2022/08/29 10:06:39;;;;;;;17.70;5.03;;;;;;;32.98;30.92;100348.13;125538;1099;104402;-77
2022/08/29 10:09:26;;;;;;;14.07;5.60;;;;;;;32.94;30.61;100322.09;124936;1099;104159;-77
2022/08/29 10:12:01;;;;;;;12.50;5.27;;;;;;;33.02;30.39;100333.39;126022;1097;101902;-77
2022/08/29 10:14:38;;;;;;;16.70;5.80;;;;;;;33.05;30.17;100333.20;124909;1099;104139;-78
2022/08/29 10:20:11;;;;;;;12.20;4.60;;;;;;;33.15;30.05;100331.66;116155;1099;10001640;-77
2022/08/29 10:22:48;;;;;;;17.57;5.30;;;;;;;33.18;30.09;100333.35;124940;1099;104110;-78
2022/08/29 10:25:32;;;;;;;13.10;5.43;;;;;;;33.23;30.30;100327.63;125226;1098;102377;-78
2022/08/29 10:28:12;;;;;;;17.73;5.37;;;;;;;33.26;30.30;100324.72;125223;1099;104336;-77
2022/08/29 10:30:54;;;;;;;16.97;5.77;;;;;;;33.22;30.19;100329.45;124949;1098;107766;-77
2022/08/29 10:33:45;;;;;;;17.37;5.03;;;;;;;33.21;30.20;100319.57;125175;1099;104252;-77
2022/08/29 10:36:22;;;;;;;12.90;5.10;;;;;;;33.26;30.16;100322.88;124851;1099;104217;-77
2022/08/29 10:39:03;;;;;;;18.47;5.03;;;;;;;33.32;29.96;100325.20;124784;1099;102804;-77
2022/08/29 10:41:54;;;;;;;15.23;5.40;;;;;;;33.37;30.03;100319.48;124893;1099;104229;-76
2022/08/29 10:44:35;;;;;;;17.00;5.15;;;;;;;33.43;29.84;100324.53;124894;1099;104198;-76
2022/08/29 10:47:23;;;;;;;17.07;6.10;;;;;;;33.42;29.70;100320.05;124823;1099;102858;-77
2022/08/29 10:50:11;;;;;;;22.80;6.57;;;;;;;33.49;30.02;100315.99;124808;1099;102788;-76
2022/08/29 10:52:54;;;;;;;22.70;5.83;;;;;;;33.58;30.03;100322.70;124829;1099;104278;-76
2022/08/29 10:55:49;;;;;;;16.37;5.97;;;;;;;33.65;30.09;100324.05;124931;1099;102784;-76
2022/08/29 10:58:42;;;;;;;14.67;4.80;;;;;;;33.62;29.72;100329.68;125534;1099;102032;-76
2022/08/29 11:01:23;;;;;;;10.78;4.75;;;;;;;33.60;29.58;100322.61;125593;1099;104194;-76
2022/08/29 11:04:16;;;;;;;13.87;5.00;;;;;;;33.62;29.46;100318.80;125591;1099;104150;-76
2022/08/29 11:06:58;;;;;;;14.38;4.90;;;;;;;33.66;29.38;100319.50;124852;1099;102842;-76
2022/08/29 11:09:39;;;;;;;15.20;4.83;;;;;;;33.66;29.01;100308.62;124770;1099;104229;-76
2022/08/29 11:12:15;;;;;;;13.27;4.40;;;;;;;33.72;29.26;100305.50;125013;1099;104182;-78
2022/08/29 11:14:52;;;;;;;15.57;5.50;;;;;;;33.81;29.15;100312.22;125612;1099;104235;-78
2022/08/29 11:17:29;;;;;;;17.10;5.77;;;;;;;33.89;29.19;100309.86;124866;1099;102038;-78
2022/08/29 11:20:20;;;;;;;15.83;5.30;;;;;;;33.94;29.02;100306.84;125116;1099;104211;-78
2022/08/29 11:22:56;;;;;;;14.67;5.33;;;;;;;33.93;28.95;100297.81;125100;1099;103499;-78
2022/08/29 11:25:40;;;;;;;18.20;5.40;;;;;;;33.97;28.77;100310.25;124830;1099;104153;-77
2022/08/29 11:28:29;;;;;;;13.15;4.70;;;;;;;33.94;28.21;100307.73;125607;1099;104300;-77
2022/08/29 11:31:06;;;;;;;16.90;5.10;;;;;;;33.92;28.27;100304.22;125517;1099;104223;-78
2022/08/29 11:33:47;;;;;;;14.33;4.97;;;;;;;33.95;28.24;100297.71;124854;1099;104184;-77
2022/08/29 11:36:49;;;;;;;11.73;5.20;;;;;;;33.97;28.18;100299.38;125647;1098;104344;-77
2022/08/29 11:39:41;;;;;;;18.32;5.03;;;;;;;33.99;28.04;100302.85;125796;1099;104165;-78
2022/08/29 11:42:15;;;;;;;17.23;4.93;;;;;;;34.03;27.93;100295.35;124840;1099;104264;-76
2022/08/29 11:44:51;;;;;;;12.10;4.90;;;;;;;34.00;27.23;100288.28;124736;1098;104159;-76
2022/08/29 11:47:59;;;;;;;17.87;4.87;;;;;;;33.97;27.61;100291.20;124738;1098;104201;-76
2022/08/29 11:50:35;;;;;;;11.80;4.77;;;;;;;34.00;27.47;100295.55;124641;1099;104313;-76
2022/08/29 11:53:13;;;;;;;12.43;4.93;;;;;;;33.96;27.33;100286.72;124663;1099;104719;-76